createdAt,value
2019-02-16T00:01:07.448Z,16.40
2019-02-16T00:03:36.213Z,13.43
2019-02-16T00:06:05.038Z,20.00
2019-02-16T00:08:33.788Z,19.00
2019-02-16T00:11:02.524Z,18.07
2019-02-16T00:13:31.285Z,17.63
2019-02-16T00:16:00.035Z,15.60
2019-02-16T00:18:28.788Z,18.13
2019-02-16T00:21:03.770Z,17.17
2019-02-16T00:23:28.079Z,16.67
2019-02-16T00:25:56.831Z,15.07
2019-02-16T00:28:25.576Z,17.50
2019-02-16T00:30:54.348Z,16.73
2019-02-16T00:33:23.092Z,14.93
2019-02-16T00:35:51.858Z,18.50
2019-02-16T00:38:20.600Z,17.87
2019-02-16T00:40:49.373Z,14.50
2019-02-16T00:43:18.110Z,18.23
2019-02-16T00:45:47.332Z,15.13
2019-02-16T00:48:16.165Z,18.33
2019-02-16T00:50:44.920Z,17.03
2019-02-16T00:53:13.740Z,15.60
2019-02-16T00:55:42.499Z,16.10
2019-02-16T00:58:11.332Z,16.53
2019-02-16T01:00:40.744Z,14.50
2019-02-16T01:03:09.493Z,14.10
2019-02-16T01:05:38.251Z,15.73
2019-02-16T01:08:06.995Z,17.17
2019-02-16T01:10:35.760Z,16.43
2019-02-16T01:13:04.663Z,14.70
2019-02-16T01:15:33.488Z,18.30
2019-02-16T01:18:02.231Z,14.37
2019-02-16T01:20:30.982Z,17.50
2019-02-16T01:22:59.745Z,18.27
2019-02-16T01:25:28.496Z,19.47
2019-02-16T01:27:57.256Z,17.42
2019-02-16T01:30:26.010Z,15.93
2019-02-16T01:32:54.761Z,17.77
2019-02-16T01:35:25.217Z,21.27
2019-02-16T01:37:53.984Z,22.60
2019-02-16T01:40:22.736Z,20.40
2019-02-16T01:42:51.504Z,21.00
2019-02-16T01:45:20.281Z,17.90
2019-02-16T01:47:49.027Z,19.13
2019-02-16T01:50:17.763Z,15.43
2019-02-16T01:52:46.524Z,17.83
2019-02-16T01:55:15.288Z,16.00
2019-02-16T01:57:44.056Z,19.00
2019-02-16T02:00:12.811Z,19.90
2019-02-16T02:02:41.564Z,18.27
2019-02-16T02:05:10.473Z,17.73
2019-02-16T02:07:39.785Z,17.97
2019-02-16T02:10:09.439Z,16.90
2019-02-16T02:12:38.189Z,18.57
2019-02-16T02:15:08.176Z,19.32
2019-02-16T02:17:36.936Z,17.97
2019-02-16T02:20:06.069Z,19.67
2019-02-16T02:22:34.819Z,18.23
2019-02-16T02:25:06.605Z,15.70
2019-02-16T02:27:35.368Z,14.97
2019-02-16T02:30:04.606Z,16.77
2019-02-16T02:32:33.383Z,15.20
2019-02-16T02:35:02.129Z,15.73
2019-02-16T02:37:31.042Z,15.85
2019-02-16T02:39:59.784Z,20.17
2019-02-16T02:42:28.548Z,16.42
2019-02-16T02:44:57.314Z,16.30
2019-02-16T02:47:26.053Z,15.77
2019-02-16T02:49:54.813Z,13.50
2019-02-16T02:52:24.486Z,20.73
2019-02-16T02:54:53.224Z,14.73
2019-02-16T02:57:21.989Z,16.03
2019-02-16T02:59:50.741Z,17.40
2019-02-16T03:02:19.664Z,17.50
2019-02-16T03:04:48.418Z,19.65
2019-02-16T03:07:17.273Z,20.10
2019-02-16T03:09:46.399Z,22.00
2019-02-16T03:12:15.147Z,23.70
2019-02-16T03:14:45.212Z,20.48
2019-02-16T03:17:13.936Z,23.83
2019-02-16T03:19:42.694Z,21.70
2019-02-16T03:22:11.436Z,19.80
2019-02-16T03:24:40.856Z,22.17
2019-02-16T03:27:29.444Z,20.35
2019-02-16T03:30:12.437Z,15.93
2019-02-16T03:33:04.150Z,17.77
2019-02-16T03:36:09.985Z,16.50
2019-02-16T03:39:17.216Z,23.03
2019-02-16T03:41:45.955Z,21.30
2019-02-16T03:44:14.781Z,22.93
2019-02-16T03:46:43.633Z,22.73
2019-02-16T03:49:12.468Z,23.15
2019-02-16T03:51:41.299Z,22.27
2019-02-16T03:54:11.388Z,19.10
2019-02-16T03:56:40.131Z,22.90
2019-02-16T03:59:08.993Z,23.97
2019-02-16T04:01:37.724Z,23.17
2019-02-16T04:04:06.474Z,21.67
2019-02-16T04:06:35.244Z,18.82
2019-02-16T04:09:05.756Z,20.57
2019-02-16T04:11:34.612Z,21.48
2019-02-16T04:14:03.428Z,21.47
2019-02-16T04:16:32.181Z,18.37
2019-02-16T04:19:00.924Z,18.63
2019-02-16T04:21:29.792Z,21.17
2019-02-16T04:23:58.582Z,19.37
2019-02-16T04:26:27.336Z,20.62
2019-02-16T04:28:56.159Z,21.87
2019-02-16T04:31:24.941Z,20.53
2019-02-16T04:33:53.702Z,21.23
2019-02-16T04:36:22.461Z,18.90
2019-02-16T04:38:51.214Z,16.77
2019-02-16T04:41:20.053Z,18.43
2019-02-16T04:43:48.793Z,18.57
2019-02-16T04:46:17.540Z,19.03
2019-02-16T04:48:46.292Z,20.35
2019-02-16T04:51:15.051Z,17.13
2019-02-16T04:53:43.800Z,19.00
2019-02-16T04:56:12.559Z,18.27
2019-02-16T04:58:41.305Z,23.97
2019-02-16T05:01:10.072Z,22.27
2019-02-16T05:03:38.840Z,17.43
2019-02-16T05:06:07.725Z,22.50
2019-02-16T05:08:36.523Z,25.37
2019-02-16T05:11:05.307Z,20.57
2019-02-16T05:13:34.093Z,18.90
2019-02-16T05:16:03.001Z,20.53
2019-02-16T05:18:31.745Z,17.93
2019-02-16T05:21:00.513Z,18.87
2019-02-16T05:23:29.276Z,19.37
2019-02-16T05:25:58.050Z,19.73
2019-02-16T05:28:27.416Z,20.85
2019-02-16T05:30:56.168Z,20.80
2019-02-16T05:33:24.929Z,21.47
2019-02-16T05:35:53.705Z,20.87
2019-02-16T05:38:22.462Z,19.27
2019-02-16T05:40:51.197Z,21.55
2019-02-16T05:43:19.980Z,19.97
2019-02-16T05:45:48.720Z,18.90
2019-02-16T05:48:17.501Z,24.23
2019-02-16T05:50:46.305Z,24.77
2019-02-16T05:53:15.071Z,26.03
2019-02-16T05:55:43.809Z,27.30
2019-02-16T05:58:12.567Z,27.47
2019-02-16T06:00:41.957Z,28.30
2019-02-16T06:03:12.011Z,21.57
2019-02-16T06:05:41.013Z,28.00
2019-02-16T06:08:10.003Z,27.10
2019-02-16T06:10:38.735Z,31.23
2019-02-16T06:13:07.690Z,30.13
2019-02-16T06:15:36.440Z,24.23
2019-02-16T06:18:05.358Z,30.70
2019-02-16T06:20:34.128Z,27.47
2019-02-16T06:23:04.692Z,20.80
2019-02-16T06:25:33.355Z,23.90
2019-02-16T06:28:04.056Z,23.40
2019-02-16T06:30:32.822Z,24.77
2019-02-16T06:33:01.568Z,20.60
2019-02-16T06:35:49.155Z,24.93
2019-02-16T06:38:18.072Z,26.83
2019-02-16T06:40:46.821Z,26.97
2019-02-16T06:43:15.594Z,25.77
2019-02-16T06:45:44.796Z,24.12
2019-02-16T06:48:14.365Z,22.17
2019-02-16T06:50:46.570Z,25.43
2019-02-16T06:53:15.740Z,22.87
2019-02-16T06:56:08.539Z,21.30
2019-02-16T06:58:39.966Z,23.30
2019-02-16T07:01:09.243Z,27.63
2019-02-16T07:03:38.006Z,27.27
2019-02-16T07:06:07.409Z,23.03
2019-02-16T07:08:36.637Z,25.27
2019-02-16T07:11:05.885Z,24.70
2019-02-16T07:13:34.641Z,23.00
2019-02-16T07:16:30.356Z,26.53
2019-02-16T07:22:08.447Z,24.35
2019-02-16T07:24:37.211Z,25.00
2019-02-16T07:27:05.952Z,24.93
2019-02-16T07:29:34.713Z,23.63
2019-02-16T07:32:04.392Z,25.43
2019-02-16T07:34:33.147Z,25.93
2019-02-16T07:37:01.914Z,22.83
2019-02-16T07:39:30.672Z,22.97
2019-02-16T07:41:59.442Z,22.50
2019-02-16T07:44:47.278Z,22.30
2019-02-16T07:47:24.093Z,22.27
2019-02-16T07:50:00.531Z,20.13
2019-02-16T07:52:38.972Z,23.00
2019-02-16T07:55:14.320Z,27.00
2019-02-16T07:58:04.904Z,19.10
2019-02-16T08:00:41.521Z,20.72
2019-02-16T08:03:38.525Z,22.93
2019-02-16T08:06:44.420Z,16.07
2019-02-16T08:09:40.839Z,17.40
2019-02-16T08:12:34.354Z,17.27
2019-02-16T08:15:17.765Z,20.10
2019-02-16T08:17:57.588Z,18.97
2019-02-16T08:20:33.857Z,16.77
2019-02-16T08:23:20.308Z,16.00
2019-02-16T08:26:11.432Z,16.73
2019-02-16T08:28:58.576Z,11.90
2019-02-16T08:31:32.496Z,13.23
2019-02-16T08:34:20.320Z,14.80
2019-02-16T08:36:54.644Z,12.20
2019-02-16T08:39:48.252Z,10.77
2019-02-16T08:42:34.933Z,11.85
2019-02-16T11:54:23.696Z,18.43
2019-02-16T11:57:00.064Z,18.82
2019-02-16T11:59:39.610Z,17.60
2019-02-16T12:02:17.772Z,23.70
2019-02-16T12:04:51.308Z,18.13
2019-02-16T12:07:37.896Z,18.50
2019-02-16T12:10:23.565Z,19.15
2019-02-16T12:13:11.328Z,17.47
2019-02-16T12:16:05.253Z,19.33
2019-02-16T12:18:41.885Z,17.57
2019-02-16T12:21:29.867Z,17.27
2019-02-16T12:24:11.301Z,17.13
2019-02-16T12:26:53.023Z,18.70
2019-02-16T12:29:46.792Z,18.30
2019-02-16T12:32:24.367Z,18.50
2019-02-16T12:35:08.676Z,17.73
2019-02-16T12:41:13.848Z,18.13
2019-02-16T12:44:12.541Z,18.00
2019-02-16T12:46:45.405Z,19.87
2019-02-16T12:49:45.777Z,17.30
2019-02-16T12:52:39.525Z,19.60
2019-02-16T12:55:21.181Z,20.30
2019-02-16T12:57:57.259Z,18.17
2019-02-16T13:00:51.125Z,19.60
2019-02-16T13:03:43.696Z,19.63
2019-02-16T13:06:40.833Z,20.30
2019-02-16T13:09:28.625Z,19.97
2019-02-16T13:12:19.487Z,21.15
2019-02-16T13:15:07.155Z,19.57
2019-02-16T13:17:53.603Z,18.27
2019-02-16T13:20:41.545Z,19.63
2019-02-16T13:23:30.180Z,20.80
2019-02-16T13:26:24.357Z,19.90
2019-02-16T13:29:11.293Z,20.20
2019-02-16T13:31:48.049Z,21.60
2019-02-16T13:34:42.135Z,20.55
2019-02-16T13:37:31.289Z,19.87
2019-02-16T13:40:25.552Z,20.80
2019-02-16T13:43:09.024Z,20.37
2019-02-16T13:45:45.337Z,20.57
2019-02-16T13:48:19.799Z,20.85
2019-02-16T13:51:15.049Z,20.90
2019-02-16T13:53:51.985Z,19.83
2019-02-16T13:56:39.204Z,20.20
2019-02-16T13:59:21.823Z,19.83
2019-02-16T14:02:03.985Z,19.60
2019-02-16T14:04:39.988Z,21.02
2019-02-16T14:07:13.780Z,19.57
2019-02-16T14:09:59.172Z,22.33
2019-02-16T14:12:47.780Z,21.73
2019-02-16T14:15:38.728Z,22.03
2019-02-16T14:18:07.491Z,19.97
2019-02-16T14:20:38.713Z,21.65
2019-02-16T14:23:07.671Z,26.30
2019-02-16T14:25:45.802Z,18.97
2019-02-16T14:28:14.844Z,20.63
2019-02-16T14:30:43.601Z,19.50
2019-02-16T14:33:12.365Z,19.33
2019-02-16T14:35:41.126Z,20.03
2019-02-16T14:38:19.630Z,20.80
2019-02-16T14:40:48.852Z,22.87
2019-02-16T14:43:17.679Z,19.53
2019-02-16T14:45:46.460Z,21.50
2019-02-16T14:48:15.233Z,19.00
2019-02-16T14:50:44.025Z,18.80
2019-02-16T14:53:12.800Z,19.30
2019-02-16T14:55:41.677Z,23.10
2019-02-16T14:58:10.440Z,22.30
2019-02-16T15:00:39.717Z,20.23
2019-02-16T15:03:08.431Z,23.93
2019-02-16T15:05:37.193Z,20.73
2019-02-16T15:08:09.806Z,22.00
2019-02-16T15:10:38.626Z,19.53
2019-02-16T15:13:07.397Z,19.17
2019-02-16T15:15:37.228Z,20.05
2019-02-16T15:18:05.989Z,22.73
2019-02-16T15:20:34.745Z,22.73
2019-02-16T15:23:03.590Z,22.80
2019-02-16T15:25:32.370Z,23.90
2019-02-16T15:28:01.389Z,22.70
2019-02-16T15:30:30.169Z,22.23
2019-02-16T15:32:58.923Z,24.90
2019-02-16T15:35:27.703Z,23.50
2019-02-16T15:37:56.452Z,20.85
2019-02-16T15:40:30.442Z,24.23
2019-02-16T15:42:59.209Z,23.55
2019-02-16T15:45:27.954Z,25.73
2019-02-16T15:47:56.722Z,24.00
2019-02-16T15:50:25.577Z,28.43
2019-02-16T15:52:55.168Z,25.60
2019-02-16T15:55:23.927Z,26.13
2019-02-16T15:57:53.542Z,24.82
2019-02-16T16:00:23.660Z,26.67
2019-02-16T16:02:53.677Z,28.63
2019-02-16T16:05:22.431Z,25.97
2019-02-16T16:07:59.216Z,28.53
2019-02-16T16:10:35.138Z,26.30
2019-02-16T16:13:12.224Z,30.77
2019-02-16T16:16:06.180Z,24.47
2019-02-16T16:18:54.024Z,22.07
2019-02-16T16:21:29.966Z,23.52
2019-02-16T16:24:12.713Z,25.97
2019-02-16T16:27:15.693Z,24.43
2019-02-16T16:30:01.109Z,22.97
2019-02-16T16:32:49.149Z,23.33
2019-02-16T16:35:32.352Z,36.70
2019-02-16T16:38:27.144Z,40.50
2019-02-16T16:41:01.574Z,27.63
2019-02-16T16:43:56.689Z,30.33
2019-02-16T16:46:44.972Z,35.88
2019-02-16T16:49:23.433Z,27.03
2019-02-16T16:52:27.400Z,25.80
2019-02-16T16:55:15.968Z,44.53
2019-02-16T16:57:54.607Z,32.90
2019-02-16T17:00:45.665Z,28.93
2019-02-16T17:03:45.844Z,29.57
2019-02-16T17:06:36.044Z,24.83
2019-02-16T17:09:26.118Z,30.13
2019-02-16T17:12:11.196Z,26.73
2019-02-16T17:15:12.624Z,26.40
2019-02-16T17:18:00.467Z,29.93
2019-02-16T17:20:49.703Z,28.93
2019-02-16T17:23:25.712Z,26.77
2019-02-16T17:26:18.952Z,25.77
2019-02-16T17:29:00.373Z,24.17
2019-02-16T17:31:58.334Z,25.40
2019-02-16T17:34:47.858Z,25.73
2019-02-16T17:37:37.857Z,23.27
2019-02-16T17:40:26.261Z,27.30
2019-02-16T17:43:01.014Z,25.67
2019-02-16T17:45:38.545Z,26.67
2019-02-16T17:48:25.547Z,26.83
2019-02-16T17:51:00.382Z,30.03
2019-02-16T17:53:54.196Z,27.90
2019-02-16T17:57:00.463Z,27.07
2019-02-16T17:59:37.652Z,26.80
2019-02-16T18:02:24.366Z,26.37
2019-02-16T18:05:12.904Z,24.92
2019-02-16T18:08:00.504Z,29.80
2019-02-16T18:10:45.108Z,26.13
2019-02-16T18:13:29.852Z,27.40
2019-02-16T18:16:06.479Z,30.45
2019-02-16T18:18:39.383Z,28.87
2019-02-16T18:21:18.874Z,25.92
2019-02-16T18:24:14.978Z,30.77
2019-02-16T18:26:59.932Z,26.33
2019-02-16T18:29:48.171Z,28.73
2019-02-16T18:32:34.716Z,32.37
2019-02-16T18:35:31.866Z,30.93
2019-02-16T18:38:21.294Z,27.83
2019-02-16T18:41:24.509Z,26.27
2019-02-16T18:44:19.791Z,27.73
2019-02-16T18:47:06.746Z,29.83
2019-02-16T18:49:57.712Z,35.07
2019-02-16T18:52:52.769Z,35.70
2019-02-16T18:55:40.603Z,32.25
2019-02-16T18:58:27.929Z,46.43
2019-02-16T19:01:30.130Z,36.03
2019-02-16T19:04:10.068Z,37.10
2019-02-16T19:07:10.206Z,26.27
2019-02-16T19:09:45.522Z,27.00
2019-02-16T19:12:32.564Z,31.10
2019-02-16T19:15:32.624Z,35.60
2019-02-16T19:18:13.817Z,38.27
2019-02-16T19:20:58.501Z,50.33
2019-02-16T19:23:37.205Z,54.80
2019-02-16T19:26:29.300Z,44.77
2019-02-16T19:29:23.389Z,39.15
2019-02-16T19:32:05.026Z,42.87
2019-02-16T19:34:49.642Z,41.23
2019-02-16T19:37:36.326Z,35.57
2019-02-16T19:40:23.373Z,27.63
2019-02-16T19:43:30.717Z,28.97
2019-02-16T19:46:21.355Z,25.63
2019-02-16T19:49:02.371Z,28.30
2019-02-16T19:51:47.165Z,27.47
2019-02-16T19:54:33.728Z,26.42
2019-02-16T19:57:11.652Z,27.62
2019-02-16T19:59:58.372Z,26.30
2019-02-16T20:02:52.040Z,29.12
2019-02-16T20:05:35.266Z,37.97
2019-02-16T20:08:28.424Z,32.57
2019-02-16T20:11:19.562Z,31.47
2019-02-16T20:13:58.910Z,32.40
2019-02-16T20:16:45.410Z,50.78
2019-02-16T20:19:36.114Z,36.10
2019-02-16T20:22:22.884Z,33.83
2019-02-16T20:25:09.442Z,32.73
2019-02-16T20:28:02.467Z,33.42
2019-02-16T20:30:53.356Z,37.42
2019-02-16T20:33:34.859Z,35.93
2019-02-16T20:36:12.636Z,31.50
2019-02-16T20:39:02.586Z,38.13
2019-02-16T20:41:53.127Z,41.23
2019-02-16T20:44:50.137Z,48.43
2019-02-16T20:47:31.681Z,47.17
2019-02-16T20:50:11.421Z,42.80
2019-02-16T20:52:52.368Z,41.40
2019-02-16T20:55:34.723Z,35.83
2019-02-16T20:58:19.500Z,38.42
2019-02-16T21:01:12.100Z,35.20
2019-02-16T21:04:00.213Z,35.83
2019-02-16T21:07:03.941Z,36.47
2019-02-16T21:09:54.764Z,34.40
2019-02-16T21:12:30.108Z,38.70
2019-02-16T21:15:11.188Z,33.83
2019-02-16T21:17:51.558Z,43.50
2019-02-16T21:20:39.939Z,86.25
2019-02-16T21:23:31.033Z,92.33
2019-02-16T21:26:11.701Z,59.63
2019-02-16T21:28:47.290Z,46.57
2019-02-16T21:34:18.708Z,41.20
2019-02-16T21:36:55.774Z,43.33
2019-02-16T21:39:37.677Z,39.13
2019-02-16T21:42:15.317Z,35.77
2019-02-16T21:44:52.895Z,37.60
2019-02-16T21:47:40.957Z,33.40
2019-02-16T21:50:38.353Z,34.57
2019-02-16T21:53:38.781Z,36.83
2019-02-16T21:56:15.058Z,36.73
2019-02-16T21:59:07.923Z,45.27
2019-02-16T22:02:01.014Z,48.60
2019-02-16T22:04:48.934Z,37.93
2019-02-16T22:07:42.324Z,42.03
2019-02-16T22:10:26.575Z,39.40
2019-02-16T22:13:11.981Z,39.85
2019-02-16T22:15:41.349Z,41.63
2019-02-16T22:18:16.245Z,41.60
2019-02-16T22:20:45.443Z,44.67
2019-02-16T22:23:14.819Z,42.00
2019-02-16T22:25:43.827Z,42.23
2019-02-16T22:28:18.791Z,42.73
2019-02-16T22:30:45.713Z,37.20
2019-02-16T22:33:22.762Z,40.25
2019-02-16T22:35:53.685Z,44.33
2019-02-16T22:38:23.149Z,43.70
2019-02-16T22:40:52.577Z,41.40
2019-02-16T22:43:23.164Z,46.65
2019-02-16T22:45:53.998Z,52.57
2019-02-16T22:48:24.379Z,43.43
2019-02-16T22:50:53.459Z,37.97
2019-02-16T22:53:22.657Z,41.60
2019-02-16T22:55:51.871Z,47.13
2019-02-16T22:58:28.862Z,39.93
2019-02-16T23:00:57.333Z,39.30
2019-02-16T23:03:26.373Z,41.73
2019-02-16T23:05:55.672Z,41.43
2019-02-16T23:08:24.726Z,44.73
2019-02-16T23:10:57.933Z,40.35
2019-02-16T23:13:27.092Z,38.10
2019-02-16T23:15:59.404Z,38.33
2019-02-16T23:18:28.252Z,47.33
2019-02-16T23:20:57.586Z,40.50
2019-02-16T23:23:26.888Z,39.70
2019-02-16T23:25:56.082Z,39.78
2019-02-16T23:28:38.697Z,43.17
2019-02-16T23:31:02.486Z,42.67
2019-02-16T23:33:31.413Z,39.83
2019-02-16T23:36:00.228Z,42.87
2019-02-16T23:38:29.027Z,42.07
2019-02-16T23:40:58.723Z,39.70
2019-02-16T23:43:27.994Z,41.10
2019-02-16T23:45:56.939Z,44.37
2019-02-16T23:48:25.928Z,40.67
2019-02-16T23:50:56.564Z,41.40
2019-02-16T23:53:25.346Z,42.70
2019-02-16T23:55:54.146Z,44.73
2019-02-16T23:58:24.178Z,46.03
